sensor_id;sensor_type;location;lat;lon;timestamp;pressure;altitude;pressure_sealevel;temperature;humidity
85244;BME280;75643;56.928;41.094;2024-03-29T00:02:15;99835.28;;;-0.18;61.50
85244;BME280;75643;56.928;41.094;2024-03-29T00:04:43;99845.81;;;-0.13;61.16
85244;BME280;75643;56.928;41.094;2024-03-29T00:07:09;99840.56;;;-0.15;61.39
85244;BME280;75643;56.928;41.094;2024-03-29T00:09:35;99843.16;;;-0.15;61.51
85244;BME280;75643;56.928;41.094;2024-03-29T00:12:03;99825.53;;;-0.25;61.77
85244;BME280;75643;56.928;41.094;2024-03-29T00:20:07;99780.22;;;-0.61;62.65
85244;BME280;75643;56.928;41.094;2024-03-29T00:22:34;99797.91;;;-0.50;62.31
85244;BME280;75643;56.928;41.094;2024-03-29T00:28:04;99803.38;;;-0.41;62.69
85244;BME280;75643;56.928;41.094;2024-03-29T00:30:31;99805.13;;;-0.39;62.68
85244;BME280;75643;56.928;41.094;2024-03-29T00:32:57;99796.53;;;-0.38;62.85
85244;BME280;75643;56.928;41.094;2024-03-29T00:35:23;99799.69;;;-0.47;63.16
85244;BME280;75643;56.928;41.094;2024-03-29T00:37:50;99798.97;;;-0.43;63.04
85244;BME280;75643;56.928;41.094;2024-03-29T00:40:16;99797.97;;;-0.47;63.23
85244;BME280;75643;56.928;41.094;2024-03-29T00:42:44;99806.50;;;-0.51;63.05
85244;BME280;75643;56.928;41.094;2024-03-29T00:45:10;99797.75;;;-0.54;63.45
85244;BME280;75643;56.928;41.094;2024-03-29T00:47:37;99804.84;;;-0.49;63.41
85244;BME280;75643;56.928;41.094;2024-03-29T00:50:03;99793.19;;;-0.61;63.68
85244;BME280;75643;56.928;41.094;2024-03-29T00:52:30;99801.03;;;-0.60;63.93
85244;BME280;75643;56.928;41.094;2024-03-29T00:54:57;99795.25;;;-0.51;64.19
85244;BME280;75643;56.928;41.094;2024-03-29T00:57:24;99795.34;;;-0.48;63.77
85244;BME280;75643;56.928;41.094;2024-03-29T00:59:50;99790.00;;;-0.53;63.78
85244;BME280;75643;56.928;41.094;2024-03-29T01:02:16;99796.25;;;-0.48;64.05
85244;BME280;75643;56.928;41.094;2024-03-29T01:04:43;99792.00;;;-0.44;63.90
85244;BME280;75643;56.928;41.094;2024-03-29T01:07:10;99785.06;;;-0.45;64.25
85244;BME280;75643;56.928;41.094;2024-03-29T01:09:37;99781.63;;;-0.44;64.09
85244;BME280;75643;56.928;41.094;2024-03-29T01:12:03;99778.41;;;-0.37;63.96
85244;BME280;75643;56.928;41.094;2024-03-29T01:14:30;99772.94;;;-0.45;63.98
85244;BME280;75643;56.928;41.094;2024-03-29T01:16:56;99779.28;;;-0.36;63.93
85244;BME280;75643;56.928;41.094;2024-03-29T01:19:22;99772.38;;;-0.36;64.09
85244;BME280;75643;56.928;41.094;2024-03-29T01:21:48;99764.72;;;-0.31;63.83
85244;BME280;75643;56.928;41.094;2024-03-29T01:24:14;99753.38;;;-0.33;63.67
85244;BME280;75643;56.928;41.094;2024-03-29T01:26:40;99767.50;;;-0.25;63.63
85244;BME280;75643;56.928;41.094;2024-03-29T01:29:07;99757.25;;;-0.21;63.57
85244;BME280;75643;56.928;41.094;2024-03-29T01:31:33;99766.94;;;-0.15;63.18
85244;BME280;75643;56.928;41.094;2024-03-29T01:33:59;99758.25;;;-0.16;63.24
85244;BME280;75643;56.928;41.094;2024-03-29T01:36:28;99759.06;;;-0.18;63.69
85244;BME280;75643;56.928;41.094;2024-03-29T01:38:55;99754.66;;;-0.21;63.21
85244;BME280;75643;56.928;41.094;2024-03-29T01:41:24;99751.97;;;-0.24;63.66
85244;BME280;75643;56.928;41.094;2024-03-29T01:43:54;99743.28;;;-0.24;63.62
85244;BME280;75643;56.928;41.094;2024-03-29T01:46:22;99742.50;;;-0.22;63.49
85244;BME280;75643;56.928;41.094;2024-03-29T01:48:50;99741.53;;;-0.25;63.77
85244;BME280;75643;56.928;41.094;2024-03-29T01:51:18;99713.38;;;-0.40;64.03
85244;BME280;75643;56.928;41.094;2024-03-29T01:53:44;99740.66;;;-0.26;63.77
85244;BME280;75643;56.928;41.094;2024-03-29T01:56:11;99730.16;;;-0.29;63.85
85244;BME280;75643;56.928;41.094;2024-03-29T01:58:39;99724.88;;;-0.32;63.58
85244;BME280;75643;56.928;41.094;2024-03-29T02:01:07;99713.47;;;-0.37;63.71
85244;BME280;75643;56.928;41.094;2024-03-29T02:03:34;99722.91;;;-0.39;64.31
85244;BME280;75643;56.928;41.094;2024-03-29T02:06:00;99717.84;;;-0.36;63.90
85244;BME280;75643;56.928;41.094;2024-03-29T02:08:28;99709.28;;;-0.32;63.93
85244;BME280;75643;56.928;41.094;2024-03-29T02:10:54;99711.06;;;-0.31;63.70
85244;BME280;75643;56.928;41.094;2024-03-29T02:13:22;99708.53;;;-0.28;63.46
85244;BME280;75643;56.928;41.094;2024-03-29T02:15:49;99693.59;;;-0.35;63.74
85244;BME280;75643;56.928;41.094;2024-03-29T02:18:15;99710.34;;;-0.25;63.73
85244;BME280;75643;56.928;41.094;2024-03-29T02:20:41;99706.88;;;-0.26;63.85
85244;BME280;75643;56.928;41.094;2024-03-29T02:23:13;99706.94;;;-0.24;63.72
85244;BME280;75643;56.928;41.094;2024-03-29T02:25:40;99693.97;;;-0.23;63.56
85244;BME280;75643;56.928;41.094;2024-03-29T02:28:07;99693.63;;;-0.05;63.18
85244;BME280;75643;56.928;41.094;2024-03-29T02:30:33;99679.78;;;-0.04;62.59
85244;BME280;75643;56.928;41.094;2024-03-29T02:33:00;99696.84;;;0.18;61.96
85244;BME280;75643;56.928;41.094;2024-03-29T02:35:26;99703.25;;;0.29;61.82
85244;BME280;75643;56.928;41.094;2024-03-29T02:37:53;99687.84;;;0.36;61.68
85244;BME280;75643;56.928;41.094;2024-03-29T02:40:20;99697.53;;;0.42;61.53
85244;BME280;75643;56.928;41.094;2024-03-29T02:42:48;99682.97;;;0.49;61.49
85244;BME280;75643;56.928;41.094;2024-03-29T02:45:15;99682.22;;;0.53;61.45
85244;BME280;75643;56.928;41.094;2024-03-29T02:47:41;99664.88;;;0.53;61.14
85244;BME280;75643;56.928;41.094;2024-03-29T02:50:09;99668.66;;;0.64;60.85
85244;BME280;75643;56.928;41.094;2024-03-29T02:52:36;99661.84;;;0.69;61.19
85244;BME280;75643;56.928;41.094;2024-03-29T02:55:03;99651.34;;;0.66;61.14
85244;BME280;75643;56.928;41.094;2024-03-29T02:57:30;99659.84;;;0.59;60.98
85244;BME280;75643;56.928;41.094;2024-03-29T02:59:56;99660.66;;;0.57;61.58
85244;BME280;75643;56.928;41.094;2024-03-29T03:02:23;99634.28;;;0.43;61.95
85244;BME280;75643;56.928;41.094;2024-03-29T03:04:49;99647.44;;;0.49;62.40
85244;BME280;75643;56.928;41.094;2024-03-29T03:07:15;99646.59;;;0.50;61.98
85244;BME280;75643;56.928;41.094;2024-03-29T03:10:00;99656.41;;;0.60;61.63
85244;BME280;75643;56.928;41.094;2024-03-29T03:12:45;99660.75;;;0.96;60.88
85244;BME280;75643;56.928;41.094;2024-03-29T03:15:11;99647.25;;;1.10;60.25
85244;BME280;75643;56.928;41.094;2024-03-29T03:17:38;99670.75;;;1.15;60.27
85244;BME280;75643;56.928;41.094;2024-03-29T03:20:05;99670.81;;;1.18;60.31
85244;BME280;75643;56.928;41.094;2024-03-29T03:22:33;99663.88;;;1.17;59.94
85244;BME280;75643;56.928;41.094;2024-03-29T03:24:59;99664.78;;;1.19;59.75
85244;BME280;75643;56.928;41.094;2024-03-29T03:27:25;99651.84;;;1.22;59.20
85244;BME280;75643;56.928;41.094;2024-03-29T03:29:51;99637.84;;;1.18;59.06
85244;BME280;75643;56.928;41.094;2024-03-29T03:32:18;99650.19;;;1.64;57.88
85244;BME280;75643;56.928;41.094;2024-03-29T03:34:44;99643.75;;;1.49;57.84
85244;BME280;75643;56.928;41.094;2024-03-29T03:37:10;99645.38;;;1.44;58.35
85244;BME280;75643;56.928;41.094;2024-03-29T03:39:37;99652.41;;;1.46;58.24
85244;BME280;75643;56.928;41.094;2024-03-29T03:42:04;99654.53;;;1.65;58.06
85244;BME280;75643;56.928;41.094;2024-03-29T03:44:33;99652.22;;;1.79;57.56
85244;BME280;75643;56.928;41.094;2024-03-29T03:46:59;99655.28;;;2.02;57.09
85244;BME280;75643;56.928;41.094;2024-03-29T03:49:25;99648.63;;;2.16;56.61
85244;BME280;75643;56.928;41.094;2024-03-29T03:51:55;99639.19;;;2.24;56.10
85244;BME280;75643;56.928;41.094;2024-03-29T03:54:21;99627.03;;;2.23;56.19
85244;BME280;75643;56.928;41.094;2024-03-29T03:56:52;99619.28;;;2.28;55.79
85244;BME280;75643;56.928;41.094;2024-03-29T03:59:18;99644.94;;;2.52;56.02
85244;BME280;75643;56.928;41.094;2024-03-29T04:01:44;99616.47;;;2.64;54.97
85244;BME280;75643;56.928;41.094;2024-03-29T04:07:04;99611.22;;;2.64;55.28
85244;BME280;75643;56.928;41.094;2024-03-29T04:09:30;99623.66;;;2.78;55.31
85244;BME280;75643;56.928;41.094;2024-03-29T04:11:56;99593.19;;;2.79;54.43
85244;BME280;75643;56.928;41.094;2024-03-29T04:14:23;99627.59;;;3.08;54.26
85244;BME280;75643;56.928;41.094;2024-03-29T04:16:49;99618.31;;;3.26;53.75
85244;BME280;75643;56.928;41.094;2024-03-29T04:19:16;99622.41;;;3.71;52.04
85244;BME280;75643;56.928;41.094;2024-03-29T04:21:43;99611.31;;;4.76;50.33
85244;BME280;75643;56.928;41.094;2024-03-29T04:24:12;99609.44;;;5.98;46.59
85244;BME280;75643;56.928;41.094;2024-03-29T04:26:41;99598.19;;;6.46;45.02
85244;BME280;75643;56.928;41.094;2024-03-29T04:29:10;99599.69;;;5.69;46.28
85244;BME280;75643;56.928;41.094;2024-03-29T04:31:37;99595.84;;;5.10;48.14
85244;BME280;75643;56.928;41.094;2024-03-29T04:34:03;99609.59;;;4.81;48.28
85244;BME280;75643;56.928;41.094;2024-03-29T04:36:30;99595.56;;;4.73;48.65
85244;BME280;75643;56.928;41.094;2024-03-29T04:38:56;99598.31;;;4.87;48.58
85244;BME280;75643;56.928;41.094;2024-03-29T04:44:28;99585.41;;;5.16;48.36
85244;BME280;75643;56.928;41.094;2024-03-29T04:46:55;99579.63;;;5.85;46.70
85244;BME280;75643;56.928;41.094;2024-03-29T04:49:24;99583.22;;;6.04;45.75
85244;BME280;75643;56.928;41.094;2024-03-29T04:51:58;99581.56;;;6.73;45.15
85244;BME280;75643;56.928;41.094;2024-03-29T04:54:32;99568.97;;;8.04;41.89
85244;BME280;75643;56.928;41.094;2024-03-29T04:57:02;99554.25;;;9.00;39.49
85244;BME280;75643;56.928;41.094;2024-03-29T04:59:33;99549.75;;;9.88;37.22
85244;BME280;75643;56.928;41.094;2024-03-29T05:02:00;99533.28;;;10.32;37.13
85244;BME280;75643;56.928;41.094;2024-03-29T05:04:27;99531.75;;;11.23;34.96
85244;BME280;75643;56.928;41.094;2024-03-29T05:06:58;99531.06;;;11.58;33.16
85244;BME280;75643;56.928;41.094;2024-03-29T05:09:25;99522.88;;;12.13;33.98
85244;BME280;75643;56.928;41.094;2024-03-29T05:23:07;99516.72;;;14.12;28.86
85244;BME280;75643;56.928;41.094;2024-03-29T05:25:34;99528.41;;;14.34;28.54
85244;BME280;75643;56.928;41.094;2024-03-29T05:28:01;99500.34;;;14.80;28.10
85244;BME280;75643;56.928;41.094;2024-03-29T05:30:28;99500.13;;;14.86;27.61
85244;BME280;75643;56.928;41.094;2024-03-29T05:32:55;99490.19;;;14.09;28.27
85244;BME280;75643;56.928;41.094;2024-03-29T05:35:21;99479.78;;;14.58;27.91
85244;BME280;75643;56.928;41.094;2024-03-29T05:37:48;99481.47;;;14.87;27.42
85244;BME280;75643;56.928;41.094;2024-03-29T05:40:18;99464.19;;;14.99;27.17
85244;BME280;75643;56.928;41.094;2024-03-29T05:42:45;99478.75;;;14.62;27.68
85244;BME280;75643;56.928;41.094;2024-03-29T05:45:27;99502.34;;;14.99;27.80
85244;BME280;75643;56.928;41.094;2024-03-29T05:47:58;99486.22;;;16.00;26.06
85244;BME280;75643;56.928;41.094;2024-03-29T05:50:25;99481.34;;;16.33;25.86
85244;BME280;75643;56.928;41.094;2024-03-29T05:52:52;99468.72;;;17.22;25.36
85244;BME280;75643;56.928;41.094;2024-03-29T05:55:19;99455.13;;;17.47;24.42
85244;BME280;75643;56.928;41.094;2024-03-29T05:57:46;99437.25;;;16.46;24.89
85244;BME280;75643;56.928;41.094;2024-03-29T06:00:13;99458.44;;;15.11;26.77
85244;BME280;75643;56.928;41.094;2024-03-29T06:02:43;99446.59;;;14.95;27.33
85244;BME280;75643;56.928;41.094;2024-03-29T06:05:14;99443.06;;;15.19;27.09
85244;BME280;75643;56.928;41.094;2024-03-29T06:07:41;99451.66;;;15.50;26.67
85244;BME280;75643;56.928;41.094;2024-03-29T06:10:07;99443.19;;;15.39;26.89
85244;BME280;75643;56.928;41.094;2024-03-29T06:12:35;99440.28;;;14.97;27.67
85244;BME280;75643;56.928;41.094;2024-03-29T06:15:05;99459.81;;;15.71;26.72
85244;BME280;75643;56.928;41.094;2024-03-29T06:17:51;99434.78;;;15.75;26.65
85244;BME280;75643;56.928;41.094;2024-03-29T06:20:17;99438.19;;;16.02;25.78
85244;BME280;75643;56.928;41.094;2024-03-29T06:22:44;99432.03;;;15.54;26.60
85244;BME280;75643;56.928;41.094;2024-03-29T06:25:11;99433.59;;;14.86;27.28
85244;BME280;75643;56.928;41.094;2024-03-29T06:27:37;99436.41;;;15.07;27.59
85244;BME280;75643;56.928;41.094;2024-03-29T06:30:05;99421.06;;;16.07;26.20
85244;BME280;75643;56.928;41.094;2024-03-29T06:32:34;99420.38;;;15.57;26.36
85244;BME280;75643;56.928;41.094;2024-03-29T06:35:01;99418.94;;;15.24;27.33
85244;BME280;75643;56.928;41.094;2024-03-29T06:37:28;99407.88;;;15.34;26.71
85244;BME280;75643;56.928;41.094;2024-03-29T06:39:55;99426.69;;;15.54;26.93
85244;BME280;75643;56.928;41.094;2024-03-29T06:42:22;99409.81;;;15.77;26.44
85244;BME280;75643;56.928;41.094;2024-03-29T06:44:49;99408.59;;;15.63;27.28
85244;BME280;75643;56.928;41.094;2024-03-29T06:47:15;99406.72;;;15.18;27.11
85244;BME280;75643;56.928;41.094;2024-03-29T06:49:42;99405.63;;;15.47;27.34
85244;BME280;75643;56.928;41.094;2024-03-29T06:52:09;99394.16;;;16.13;25.63
85244;BME280;75643;56.928;41.094;2024-03-29T06:54:35;99394.25;;;16.10;26.22
85244;BME280;75643;56.928;41.094;2024-03-29T06:57:03;99392.16;;;15.96;26.59
85244;BME280;75643;56.928;41.094;2024-03-29T06:59:29;99387.44;;;16.25;26.33
85244;BME280;75643;56.928;41.094;2024-03-29T07:01:56;99390.66;;;16.11;26.09
85244;BME280;75643;56.928;41.094;2024-03-29T07:04:24;99384.19;;;16.60;25.90
85244;BME280;75643;56.928;41.094;2024-03-29T07:06:51;99370.78;;;16.62;25.70
85244;BME280;75643;56.928;41.094;2024-03-29T07:09:20;99380.41;;;16.44;25.73
85244;BME280;75643;56.928;41.094;2024-03-29T07:11:48;99372.94;;;16.52;26.14
85244;BME280;75643;56.928;41.094;2024-03-29T07:14:15;99353.06;;;17.00;25.65
85244;BME280;75643;56.928;41.094;2024-03-29T07:16:43;99375.75;;;17.86;24.53
85244;BME280;75643;56.928;41.094;2024-03-29T07:19:10;99366.97;;;17.27;24.34
85244;BME280;75643;56.928;41.094;2024-03-29T07:21:45;99367.06;;;17.25;24.99
85244;BME280;75643;56.928;41.094;2024-03-29T07:24:12;99371.25;;;16.71;25.81
85244;BME280;75643;56.928;41.094;2024-03-29T07:26:39;99371.16;;;16.73;25.57
85244;BME280;75643;56.928;41.094;2024-03-29T07:29:06;99353.94;;;16.80;25.64
85244;BME280;75643;56.928;41.094;2024-03-29T07:31:33;99345.81;;;16.63;25.29
85244;BME280;75643;56.928;41.094;2024-03-29T07:34:01;99359.19;;;16.41;25.98
85244;BME280;75643;56.928;41.094;2024-03-29T07:36:28;99337.09;;;16.17;26.20
85244;BME280;75643;56.928;41.094;2024-03-29T07:39:00;99354.28;;;15.88;27.34
85244;BME280;75643;56.928;41.094;2024-03-29T07:41:30;99331.06;;;16.54;26.19
85244;BME280;75643;56.928;41.094;2024-03-29T07:43:58;99348.63;;;16.38;26.56
85244;BME280;75643;56.928;41.094;2024-03-29T07:46:33;99343.44;;;16.77;26.25
85244;BME280;75643;56.928;41.094;2024-03-29T07:49:01;99350.13;;;17.06;25.88
85244;BME280;75643;56.928;41.094;2024-03-29T07:51:28;99336.72;;;17.45;25.09
85244;BME280;75643;56.928;41.094;2024-03-29T07:53:55;99325.75;;;17.32;24.94
85244;BME280;75643;56.928;41.094;2024-03-29T07:56:21;99320.41;;;17.13;25.33
85244;BME280;75643;56.928;41.094;2024-03-29T07:58:52;99330.09;;;17.53;24.67
85244;BME280;75643;56.928;41.094;2024-03-29T08:01:21;99318.97;;;17.81;24.05
85244;BME280;75643;56.928;41.094;2024-03-29T08:03:51;99305.03;;;17.37;24.84
85244;BME280;75643;56.928;41.094;2024-03-29T08:06:19;99312.31;;;17.34;24.98
85244;BME280;75643;56.928;41.094;2024-03-29T08:08:45;99302.56;;;16.55;25.76
85244;BME280;75643;56.928;41.094;2024-03-29T08:11:12;99301.38;;;16.82;25.80
85244;BME280;75643;56.928;41.094;2024-03-29T08:13:40;99302.31;;;17.93;24.45
85244;BME280;75643;56.928;41.094;2024-03-29T08:16:10;99294.75;;;17.09;24.88
85244;BME280;75643;56.928;41.094;2024-03-29T08:18:40;99295.59;;;16.10;26.18
85244;BME280;75643;56.928;41.094;2024-03-29T08:21:37;99270.72;;;17.28;24.91
85244;BME280;75643;56.928;41.094;2024-03-29T08:24:07;99255.56;;;17.66;24.25
85244;BME280;75643;56.928;41.094;2024-03-29T08:26:34;99291.56;;;18.12;23.99
85244;BME280;75643;56.928;41.094;2024-03-29T08:29:02;99264.94;;;17.75;24.03
85244;BME280;75643;56.928;41.094;2024-03-29T08:31:28;99231.09;;;17.00;24.85
85244;BME280;75643;56.928;41.094;2024-03-29T08:33:55;99278.16;;;16.23;25.64
85244;BME280;75643;56.928;41.094;2024-03-29T08:36:23;99253.84;;;15.89;26.46
85244;BME280;75643;56.928;41.094;2024-03-29T08:38:50;99216.91;;;15.80;26.31
85244;BME280;75643;56.928;41.094;2024-03-29T08:41:16;99228.16;;;15.66;27.13
85244;BME280;75643;56.928;41.094;2024-03-29T08:43:43;99229.25;;;15.82;26.56
85244;BME280;75643;56.928;41.094;2024-03-29T08:46:10;99243.41;;;16.25;26.70
85244;BME280;75643;56.928;41.094;2024-03-29T08:48:36;99234.00;;;16.16;25.95
85244;BME280;75643;56.928;41.094;2024-03-29T08:51:06;99240.25;;;16.15;26.45
85244;BME280;75643;56.928;41.094;2024-03-29T08:53:32;99217.91;;;14.42;28.43
85244;BME280;75643;56.928;41.094;2024-03-29T08:56:02;99223.22;;;14.17;29.19
85244;BME280;75643;56.928;41.094;2024-03-29T08:58:32;99255.94;;;14.92;29.09
85244;BME280;75643;56.928;41.094;2024-03-29T09:00:58;99193.75;;;14.48;29.19
85244;BME280;75643;56.928;41.094;2024-03-29T09:03:34;99234.28;;;14.30;29.73
85244;BME280;75643;56.928;41.094;2024-03-29T09:06:00;99221.38;;;13.94;30.12
85244;BME280;75643;56.928;41.094;2024-03-29T09:08:29;99228.41;;;13.96;30.62
85244;BME280;75643;56.928;41.094;2024-03-29T09:10:56;99219.66;;;13.92;30.47
85244;BME280;75643;56.928;41.094;2024-03-29T09:13:33;99221.41;;;14.18;30.43
85244;BME280;75643;56.928;41.094;2024-03-29T09:19:06;99222.41;;;14.40;29.90
85244;BME280;75643;56.928;41.094;2024-03-29T09:21:33;99183.75;;;13.80;30.95
85244;BME280;75643;56.928;41.094;2024-03-29T09:23:59;99200.72;;;13.50;31.69
85244;BME280;75643;56.928;41.094;2024-03-29T09:26:26;99199.94;;;13.73;31.86
85244;BME280;75643;56.928;41.094;2024-03-29T09:28:52;99164.88;;;13.63;31.15
85244;BME280;75643;56.928;41.094;2024-03-29T09:31:19;99205.44;;;13.68;32.04
85244;BME280;75643;56.928;41.094;2024-03-29T09:33:46;99197.66;;;13.62;32.22
85244;BME280;75643;56.928;41.094;2024-03-29T09:36:29;99186.03;;;13.40;32.52
85244;BME280;75643;56.928;41.094;2024-03-29T09:38:56;99188.22;;;12.98;33.07
85244;BME280;75643;56.928;41.094;2024-03-29T09:41:25;99206.44;;;12.81;33.88
85244;BME280;75643;56.928;41.094;2024-03-29T09:43:57;99201.38;;;12.73;33.48
85244;BME280;75643;56.928;41.094;2024-03-29T09:46:28;99173.13;;;12.72;33.56
85244;BME280;75643;56.928;41.094;2024-03-29T09:48:55;99163.13;;;12.80;33.15
85244;BME280;75643;56.928;41.094;2024-03-29T09:51:22;99190.56;;;12.79;33.58
85244;BME280;75643;56.928;41.094;2024-03-29T09:53:53;99175.19;;;12.90;33.89
85244;BME280;75643;56.928;41.094;2024-03-29T09:56:21;99160.88;;;13.25;32.97
85244;BME280;75643;56.928;41.094;2024-03-29T09:58:55;99163.88;;;13.41;32.76
85244;BME280;75643;56.928;41.094;2024-03-29T10:01:21;99163.16;;;13.36;32.93
85244;BME280;75643;56.928;41.094;2024-03-29T10:03:49;99169.50;;;13.83;32.29
85244;BME280;75643;56.928;41.094;2024-03-29T10:06:20;99151.00;;;14.05;31.47
85244;BME280;75643;56.928;41.094;2024-03-29T10:08:47;99169.53;;;14.08;31.32
85244;BME280;75643;56.928;41.094;2024-03-29T10:11:14;99171.56;;;13.75;31.60
85244;BME280;75643;56.928;41.094;2024-03-29T10:13:50;99171.72;;;13.44;31.75
85244;BME280;75643;56.928;41.094;2024-03-29T10:16:20;99157.13;;;13.57;31.74
85244;BME280;75643;56.928;41.094;2024-03-29T10:18:58;99158.88;;;13.83;31.06
85244;BME280;75643;56.928;41.094;2024-03-29T10:21:25;99159.91;;;14.04;30.81
85244;BME280;75643;56.928;41.094;2024-03-29T10:23:54;99153.22;;;13.67;30.98
85244;BME280;75643;56.928;41.094;2024-03-29T10:26:21;99150.78;;;13.35;31.92
85244;BME280;75643;56.928;41.094;2024-03-29T10:28:48;99149.81;;;13.37;32.22
85244;BME280;75643;56.928;41.094;2024-03-29T10:31:15;99154.25;;;13.63;31.23
85244;BME280;75643;56.928;41.094;2024-03-29T10:33:44;99157.16;;;13.56;31.62
85244;BME280;75643;56.928;41.094;2024-03-29T10:36:11;99147.19;;;13.62;31.55
85244;BME280;75643;56.928;41.094;2024-03-29T10:39:18;99140.88;;;13.66;31.39
85244;BME280;75643;56.928;41.094;2024-03-29T10:41:47;99134.63;;;13.67;31.31
85244;BME280;75643;56.928;41.094;2024-03-29T10:44:15;99141.69;;;13.68;30.81
85244;BME280;75643;56.928;41.094;2024-03-29T10:46:43;99132.38;;;13.30;30.86
85244;BME280;75643;56.928;41.094;2024-03-29T10:49:15;99140.94;;;13.10;31.60
85244;BME280;75643;56.928;41.094;2024-03-29T10:51:43;99131.06;;;13.16;31.35
85244;BME280;75643;56.928;41.094;2024-03-29T10:54:12;99131.19;;;13.39;31.37
85244;BME280;75643;56.928;41.094;2024-03-29T10:56:40;99135.56;;;13.40;31.17
85244;BME280;75643;56.928;41.094;2024-03-29T10:59:20;99140.47;;;13.26;31.15
85244;BME280;75643;56.928;41.094;2024-03-29T11:01:53;99135.75;;;13.07;31.57
85244;BME280;75643;56.928;41.094;2024-03-29T11:04:23;99137.38;;;13.11;31.54
85244;BME280;75643;56.928;41.094;2024-03-29T11:06:57;99121.75;;;13.02;31.94
85244;BME280;75643;56.928;41.094;2024-03-29T11:09:30;99136.91;;;13.27;31.47
85244;BME280;75643;56.928;41.094;2024-03-29T11:12:01;99128.44;;;13.16;31.48
85244;BME280;75643;56.928;41.094;2024-03-29T11:14:35;99123.22;;;13.13;31.84
85244;BME280;75643;56.928;41.094;2024-03-29T11:17:09;99090.13;;;12.68;32.26
85244;BME280;75643;56.928;41.094;2024-03-29T11:20:16;99093.50;;;12.73;32.20
85244;BME280;75643;56.928;41.094;2024-03-29T11:23:12;99089.84;;;12.78;31.92
85244;BME280;75643;56.928;41.094;2024-03-29T11:25:42;99084.94;;;12.65;31.91
85244;BME280;75643;56.928;41.094;2024-03-29T11:28:26;99100.88;;;12.64;32.19
85244;BME280;75643;56.928;41.094;2024-03-29T11:31:05;99081.06;;;12.48;32.37
85244;BME280;75643;56.928;41.094;2024-03-29T11:33:44;99083.38;;;12.58;32.42
85244;BME280;75643;56.928;41.094;2024-03-29T11:36:28;99108.69;;;12.68;32.18
85244;BME280;75643;56.928;41.094;2024-03-29T11:39:00;99090.13;;;12.68;32.24
85244;BME280;75643;56.928;41.094;2024-03-29T11:41:30;99065.63;;;12.88;32.14
85244;BME280;75643;56.928;41.094;2024-03-29T11:43:58;99100.06;;;13.18;32.24
85244;BME280;75643;56.928;41.094;2024-03-29T11:46:26;99079.69;;;13.18;32.09
85244;BME280;75643;56.928;41.094;2024-03-29T11:49:02;99077.47;;;13.04;32.27
85244;BME280;75643;56.928;41.094;2024-03-29T11:51:30;99069.63;;;13.01;32.31
85244;BME280;75643;56.928;41.094;2024-03-29T11:54:05;99046.66;;;12.72;32.54
85244;BME280;75643;56.928;41.094;2024-03-29T11:56:35;99075.59;;;12.80;32.82
85244;BME280;75643;56.928;41.094;2024-03-29T11:59:07;99045.25;;;12.35;33.37
85244;BME280;75643;56.928;41.094;2024-03-29T12:01:51;99076.38;;;12.28;33.62
85244;BME280;75643;56.928;41.094;2024-03-29T12:04:27;99052.84;;;12.17;33.76
85244;BME280;75643;56.928;41.094;2024-03-29T12:07:02;99056.78;;;12.04;34.14
85244;BME280;75643;56.928;41.094;2024-03-29T12:09:52;99041.19;;;11.94;34.90
85244;BME280;75643;56.928;41.094;2024-03-29T12:12:58;99028.34;;;11.80;35.10
85244;BME280;75643;56.928;41.094;2024-03-29T12:15:33;99016.50;;;11.61;35.07
85244;BME280;75643;56.928;41.094;2024-03-29T12:18:04;99041.09;;;11.66;35.50
85244;BME280;75643;56.928;41.094;2024-03-29T12:20:32;99063.91;;;11.70;36.17
85244;BME280;75643;56.928;41.094;2024-03-29T12:23:06;99036.22;;;11.50;36.24
85244;BME280;75643;56.928;41.094;2024-03-29T12:25:58;99035.56;;;11.42;36.63
85244;BME280;75643;56.928;41.094;2024-03-29T12:28:27;99020.03;;;11.30;36.33
85244;BME280;75643;56.928;41.094;2024-03-29T12:30:58;99030.97;;;11.17;36.45
85244;BME280;75643;56.928;41.094;2024-03-29T12:33:27;99036.38;;;11.12;36.76
85244;BME280;75643;56.928;41.094;2024-03-29T12:35:55;99060.59;;;11.31;36.39
85244;BME280;75643;56.928;41.094;2024-03-29T12:38:27;99040.69;;;11.16;36.47
85244;BME280;75643;56.928;41.094;2024-03-29T12:40:55;99035.72;;;11.04;36.58
85244;BME280;75643;56.928;41.094;2024-03-29T12:43:27;99046.13;;;11.10;36.74
85244;BME280;75643;56.928;41.094;2024-03-29T12:45:55;99027.59;;;11.12;36.58
85244;BME280;75643;56.928;41.094;2024-03-29T12:48:25;99030.78;;;11.24;36.37
85244;BME280;75643;56.928;41.094;2024-03-29T12:50:52;99012.31;;;11.21;36.00
85244;BME280;75643;56.928;41.094;2024-03-29T12:53:23;99002.22;;;11.03;36.15
85244;BME280;75643;56.928;41.094;2024-03-29T12:55:50;99027.88;;;11.01;36.59
85244;BME280;75643;56.928;41.094;2024-03-29T12:58:17;99010.75;;;10.80;36.94
85244;BME280;75643;56.928;41.094;2024-03-29T13:00:52;98999.72;;;10.64;36.85
85244;BME280;75643;56.928;41.094;2024-03-29T13:03:31;99021.44;;;10.76;36.92
85244;BME280;75643;56.928;41.094;2024-03-29T13:06:02;99035.88;;;10.98;36.88
85244;BME280;75643;56.928;41.094;2024-03-29T13:08:40;99020.44;;;10.81;36.77
85244;BME280;75643;56.928;41.094;2024-03-29T13:11:07;99016.28;;;10.71;37.09
85244;BME280;75643;56.928;41.094;2024-03-29T13:13:36;99009.53;;;10.59;37.14
85244;BME280;75643;56.928;41.094;2024-03-29T13:16:06;99012.16;;;10.59;37.36
85244;BME280;75643;56.928;41.094;2024-03-29T13:18:53;99007.03;;;10.53;37.65
85244;BME280;75643;56.928;41.094;2024-03-29T13:21:32;99036.50;;;10.72;37.91
85244;BME280;75643;56.928;41.094;2024-03-29T13:24:01;98998.56;;;10.39;38.10
85244;BME280;75643;56.928;41.094;2024-03-29T13:26:28;99016.16;;;10.40;38.38
85244;BME280;75643;56.928;41.094;2024-03-29T13:28:57;99017.22;;;10.32;38.75
85244;BME280;75643;56.928;41.094;2024-03-29T13:31:31;98994.97;;;10.02;39.14
85244;BME280;75643;56.928;41.094;2024-03-29T13:34:13;99028.88;;;10.23;39.61